Stations météo

réclame
Mon MeteoGroup
Altenstadt, Allemagne (10954): Température de l'air & dewpoint: 04.12.2018 23:00:00 - 10.12.2018 23:00:00 (CET)Altenstadt, Allemagne (10954): Vitesse du vent & gusts: 04.12.2018 23:00:00 - 10.12.2018 23:00:00 (CET)Altenstadt, Allemagne (10954): Direction du vent: 04.12.2018 23:00:00 - 10.12.2018 23:00:00 (CET)Altenstadt, Allemagne (10954): visibility: 04.12.2018 23:00:00 - 10.12.2018 23:00:00 (CET)
Date & Time tt [°C] td [°C] ff [km/h] ff [knt] fx [km/h] fx [knt] dd vv [km]
10.12.2018 23:00:00 -0,7 -2,5 32 18 - - NW -
10.12.2018 22:00:00 0,7 -1,4 32 18 - - W -
10.12.2018 21:00:00 0,0 -1,7 25 14 - - W 9
10.12.2018 20:00:00 0,0 -0,9 29 16 - - W 0,6
10.12.2018 19:00:00 0,6 -1,0 18 10 - - W 7
10.12.2018 18:00:00 0,4 -1,6 18 10 - - W 22
10.12.2018 17:00:00 1,2 -1,4 29 16 - - W 25
10.12.2018 16:00:00 1,8 -1,0 25 14 - - W 20
10.12.2018 15:00:00 1,7 -0,5 25 14 - - W 9
10.12.2018 14:00:00 0,6 -1,2 25 14 47 25 WNW 14
10.12.2018 13:00:00 1,5 -0,9 22 12 - - W 15
10.12.2018 12:00:00 1,2 -0,7 25 14 - - WNW 15
10.12.2018 11:00:00 0,5 -0,7 24 13 47 25 W 3,0
10.12.2018 10:00:00 0,0 -1,0 35 19 - - NW 3,5
10.12.2018 09:00:00 1,5 -0,8 36 19 54 29 WNW 2,5
10.12.2018 08:00:00 1,8 -0,8 36 19 54 29 W 15
10.12.2018 07:00:00 1,7 -0,9 36 19 - - W 15
10.12.2018 06:00:00 1,8 -0,6 32 18 54 29 W 15
10.12.2018 05:00:00 1,9 0,4 32 18 58 31 W 12
10.12.2018 04:00:00 2,2 0,9 32 18 - - W -
10.12.2018 03:00:00 2,7 1,0 29 16 54 29 WNW -
10.12.2018 02:00:00 2,9 1,6 36 19 54 29 W -
10.12.2018 01:00:00 3,1 1,1 32 18 - - W -
10.12.2018 00:00:00 3,0 1,4 25 14 50 27 WNW -
09.12.2018 23:00:00 3,2 2,2 32 18 54 29 WNW -
09.12.2018 22:00:00 3,7 2,6 32 18 - - W -
09.12.2018 21:00:00 3,6 2,4 40 21 61 33 W -
09.12.2018 20:00:00 3,4 2,2 43 23 68 37 W -
09.12.2018 19:00:00 3,1 2,2 40 21 - - W -
09.12.2018 18:00:00 2,9 1,8 40 21 58 31 W -
09.12.2018 17:00:00 2,2 1,3 40 21 61 33 W -
09.12.2018 16:00:00 2,6 1,5 40 21 - - W -
09.12.2018 15:00:00 3,1 1,8 36 19 61 33 W -
09.12.2018 14:00:00 3,7 2,0 43 23 65 35 W -
09.12.2018 13:00:00 4,4 1,6 47 25 - - W -
09.12.2018 12:00:00 3,9 1,9 40 21 61 33 W -
09.12.2018 11:00:00 2,4 1,5 36 19 61 33 W -
09.12.2018 10:00:00 4,5 1,8 50 27 - - W -
09.12.2018 09:00:00 2,5 1,2 18 10 50 27 W -
09.12.2018 08:00:00 1,7 1,1 32 18 104 56 W -
09.12.2018 07:00:00 5,9 2,8 54 29 - - W -
09.12.2018 06:00:00 5,8 3,5 54 29 90 49 W -
09.12.2018 05:00:00 5,6 4,3 43 23 68 37 W -
09.12.2018 04:00:00 6,2 4,2 40 21 - - W -
09.12.2018 03:00:00 7,7 2,8 50 27 83 45 W -
09.12.2018 02:00:00 7,0 2,8 58 31 79 43 W -
09.12.2018 01:00:00 5,2 2,9 50 27 - - W -
09.12.2018 00:00:00 4,8 1,8 36 19 65 35 WSW -
08.12.2018 23:00:00 5,3 0,8 36 19 58 31 WSW -
08.12.2018 22:00:00 5,4 -0,2 47 25 - - W -
08.12.2018 21:00:00 5,9 -1,0 50 27 76 41 W -
08.12.2018 20:00:00 5,5 -0,7 50 27 83 45 W -
08.12.2018 19:00:00 5,2 -0,4 50 27 - - W -
08.12.2018 18:00:00 4,1 0,6 43 23 68 37 W -
08.12.2018 17:00:00 4,2 0,1 40 21 72 39 W -
08.12.2018 16:00:00 4,6 -0,7 47 25 - - W -
08.12.2018 15:00:00 5,1 -1,5 54 29 79 43 W -
08.12.2018 14:00:00 5,3 -2,1 50 27 83 45 W -
08.12.2018 13:00:00 5,3 -2,1 58 31 - - W -
08.12.2018 12:00:00 4,9 -2,0 50 27 76 41 W -
08.12.2018 11:00:00 3,8 -2,4 50 27 86 47 W -
08.12.2018 10:00:00 3,5 -1,8 43 23 - - W -
08.12.2018 09:00:00 2,9 -1,7 40 21 65 35 W -
08.12.2018 08:00:00 2,3 -1,6 29 16 58 31 W -
08.12.2018 07:00:00 2,7 -1,0 40 21 - - W -
08.12.2018 06:00:00 2,6 -1,2 40 21 58 31 W -
08.12.2018 05:00:00 2,4 -0,5 40 21 72 39 W -
08.12.2018 04:00:00 2,2 1,0 43 23 - - W -
08.12.2018 03:00:00 2,3 1,3 40 21 65 35 W -
08.12.2018 02:00:00 3,9 2,4 43 23 76 41 W -
08.12.2018 01:00:00 4,4 3,6 36 19 - - W -
08.12.2018 00:00:00 5,6 3,2 54 29 90 49 W -
07.12.2018 23:00:00 7,9 4,4 40 21 79 43 W -
07.12.2018 22:00:00 8,4 4,5 58 31 - - W -
07.12.2018 21:00:00 8,4 4,3 46 25 72 39 W 10
07.12.2018 20:00:00 7,2 4,5 14 8 - - WSW 60
07.12.2018 19:00:00 7,1 4,4 11 6 - - WSW 60
07.12.2018 18:00:00 7,0 4,0 14 8 - - WSW 60
07.12.2018 17:00:00 8,9 4,9 22 12 - - WSW 60
07.12.2018 16:00:00 9,5 5,1 25 14 - - W 60
07.12.2018 15:00:00 11,2 4,4 14 8 - - W 60
07.12.2018 14:00:00 11,0 5,1 11 6 - - WSW 60
07.12.2018 13:00:00 10,6 5,4 14 8 - - WSW 60
07.12.2018 12:00:00 9,9 5,3 29 16 - - W 60
07.12.2018 11:00:00 9,7 5,4 22 12 - - W 60
07.12.2018 10:00:00 9,3 5,3 32 18 - - W 75
07.12.2018 09:00:00 9,3 5,4 32 18 47 25 W 75
07.12.2018 08:00:00 9,2 5,1 29 16 - - W 75
07.12.2018 07:00:00 9,1 5,3 29 16 - - W 30
07.12.2018 06:00:00 9,1 5,3 25 14 - - W 30
07.12.2018 05:00:00 9,1 4,9 25 14 - - W 30
07.12.2018 04:00:00 9,1 4,9 29 16 - - WSW -
07.12.2018 03:00:00 9,1 5,1 25 14 - - W -
07.12.2018 02:00:00 8,6 5,2 22 12 - - W -
07.12.2018 01:00:00 8,0 5,1 22 12 - - WSW -
07.12.2018 00:00:00 7,8 5,1 14 8 - - W -
06.12.2018 23:00:00 8,3 5,0 22 12 - - W -
06.12.2018 22:00:00 8,1 5,1 22 12 - - W -
06.12.2018 21:00:00 7,7 5,2 22 12 - - W 20
06.12.2018 20:00:00 7,3 5,2 22 12 - - WSW 20
06.12.2018 19:00:00 7,1 5,4 18 10 - - W 10
06.12.2018 18:00:00 7,1 5,6 18 10 - - WSW 20
06.12.2018 17:00:00 7,7 6,1 18 10 - - W 6
06.12.2018 16:00:00 8,0 6,3 22 12 - - W 12
06.12.2018 15:00:00 8,7 5,9 29 16 - - W 40
06.12.2018 14:00:00 9,2 6,0 29 16 47 25 W 40
06.12.2018 13:00:00 8,8 6,1 29 16 - - W 40
06.12.2018 12:00:00 8,1 6,4 25 14 - - W 40
06.12.2018 11:00:00 7,4 6,3 25 14 - - W 6
06.12.2018 10:00:00 7,5 5,5 25 14 - - W 40
06.12.2018 09:00:00 7,1 5,5 22 12 - - WSW 40
06.12.2018 08:00:00 6,5 5,3 22 12 - - WSW 15
06.12.2018 07:00:00 7,2 4,9 32 18 - - W 15
06.12.2018 06:00:00 5,2 4,8 4 2 - - WSW 20
06.12.2018 05:00:00 5,7 5,3 4 2 - - N 20
06.12.2018 04:00:00 6,1 5,4 7 4 - - S -
06.12.2018 03:00:00 6,7 4,4 14 8 - - W -
06.12.2018 02:00:00 4,8 4,0 4 2 - - SE -
06.12.2018 01:00:00 3,4 3,2 7 4 - - NNE -
06.12.2018 00:00:00 3,2 3,0 7 4 - - WSW -
05.12.2018 23:00:00 3,2 3,0 4 2 - - N -
05.12.2018 22:00:00 3,2 3,0 4 2 - - W -
05.12.2018 21:00:00 3,1 2,9 4 2 - - N 0,2
05.12.2018 20:00:00 2,9 2,7 4 2 - - NE -
05.12.2018 19:00:00 3,3 3,1 4 2 - - ESE -
05.12.2018 18:00:00 3,6 3,4 4 2 - - N 0,1
05.12.2018 17:00:00 3,9 3,5 5 3 - - - 2,8
05.12.2018 16:00:00 4,8 3,9 7 4 - - E 9
05.12.2018 15:00:00 4,8 3,8 4 2 - - SE 10
05.12.2018 14:00:00 4,7 3,5 4 2 - - E 12
05.12.2018 13:00:00 4,3 3,5 4 2 - - N 9
05.12.2018 12:00:00 3,9 3,1 4 2 - - N 10
05.12.2018 11:00:00 3,4 2,9 4 2 - - NNW 7
05.12.2018 10:00:00 3,0 2,6 0 0 - - N 5
05.12.2018 09:00:00 2,7 2,4 4 2 - - S 5
05.12.2018 08:00:00 2,4 2,2 0 0 - - N 3,5
05.12.2018 07:00:00 2,6 2,4 0 0 - - N 7
05.12.2018 06:00:00 2,5 2,3 4 2 - - ENE 7
05.12.2018 05:00:00 2,5 2,3 4 2 - - SSW 0,9
05.12.2018 04:00:00 2,7 2,4 4 2 - - S -
05.12.2018 03:00:00 2,7 2,5 4 2 - - N -
05.12.2018 02:00:00 2,9 2,6 4 2 - - SSW -
05.12.2018 01:00:00 3,0 2,7 4 2 - - N -
05.12.2018 00:00:00 3,1 2,8 4 2 - - N -
04.12.2018 23:00:00 3,0 2,7 4 2 - - SSW -

tt = Température de l'air
td = dewpoint
ff = Vitesse du vent
fx = gusts
dd = Direction du vent
vv = visibility

stations d'obs. à proximité